createdAt,value
2023-01-13T00:01:27.755Z,97911.31
2023-01-13T00:03:55.311Z,97911.06
2023-01-13T00:06:29.325Z,97912.56
2023-01-13T00:08:57.908Z,97918.63
2023-01-13T00:11:26.421Z,97908.09
2023-01-13T00:13:54.121Z,97906.00
2023-01-13T00:16:22.028Z,97895.13
2023-01-13T00:18:51.301Z,97899.81
2023-01-13T00:21:24.357Z,97895.28
2023-01-13T00:23:55.506Z,97883.97
2023-01-13T00:26:30.617Z,97883.63
2023-01-13T00:28:59.229Z,97884.72
2023-01-13T00:31:28.674Z,97890.78
2023-01-13T00:34:00.693Z,97872.19
2023-01-13T00:36:29.332Z,97883.78
2023-01-13T00:38:56.789Z,97886.75
2023-01-13T00:41:26.313Z,97879.34
2023-01-13T00:43:53.825Z,97885.06
2023-01-13T00:46:22.907Z,97876.34
2023-01-13T00:48:51.622Z,97878.47
2023-01-13T00:51:21.328Z,97878.72
2023-01-13T00:53:52.577Z,97876.34
2023-01-13T00:56:38.564Z,97873.31
2023-01-13T00:59:06.740Z,97864.75
2023-01-13T01:01:34.006Z,97874.69
2023-01-13T01:04:01.286Z,97863.63
2023-01-13T01:06:29.030Z,97865.00
2023-01-13T01:08:56.928Z,97854.66
2023-01-13T01:11:31.143Z,97859.81
2023-01-13T01:14:02.135Z,97851.75
2023-01-13T01:16:31.601Z,97850.50
2023-01-13T01:18:59.773Z,97852.56
2023-01-13T01:21:28.929Z,97853.19
2023-01-13T01:23:59.375Z,97852.91
2023-01-13T01:26:28.155Z,97856.34
2023-01-13T01:28:56.266Z,97853.41
2023-01-13T01:31:32.730Z,97843.97
2023-01-13T01:34:01.100Z,97838.94
2023-01-13T01:36:30.361Z,97845.75
2023-01-13T01:38:59.478Z,97835.69
2023-01-13T01:41:31.723Z,97843.31
2023-01-13T01:44:03.027Z,97837.22
2023-01-13T01:46:44.082Z,97841.13
2023-01-13T01:49:26.444Z,97840.31
2023-01-13T01:51:54.227Z,97831.81
2023-01-13T01:54:30.973Z,97834.09
2023-01-13T01:56:58.740Z,97825.38
2023-01-13T01:59:32.100Z,97817.94
2023-01-13T02:01:59.342Z,97823.72
2023-01-13T02:04:35.561Z,97824.44
2023-01-13T02:07:04.054Z,97812.56
2023-01-13T02:09:32.171Z,97821.25
2023-01-13T02:12:18.112Z,97817.47
2023-01-13T02:14:45.957Z,97818.38
2023-01-13T02:17:22.061Z,97811.94
2023-01-13T02:20:03.973Z,97811.00
2023-01-13T02:23:08.845Z,97807.84
2023-01-13T02:26:19.381Z,97803.34
2023-01-13T02:29:49.140Z,97816.47
2023-01-13T02:33:03.852Z,97799.75
2023-01-13T02:35:40.576Z,97800.75
2023-01-13T02:38:11.486Z,97796.78
2023-01-13T02:40:55.868Z,97778.19
2023-01-13T02:43:57.645Z,97780.69
2023-01-13T02:46:31.128Z,97795.63
2023-01-13T02:49:05.883Z,97782.44
2023-01-13T02:51:34.071Z,97781.31
2023-01-13T02:54:11.379Z,97776.91
2023-01-13T02:56:45.015Z,97774.31
2023-01-13T02:59:13.292Z,97771.84
2023-01-13T03:01:41.369Z,97781.34
2023-01-13T03:04:45.562Z,97778.16
2023-01-13T03:07:44.554Z,97773.25
2023-01-13T03:10:34.447Z,97777.25
2023-01-13T03:13:14.284Z,97766.63
2023-01-13T03:15:53.214Z,97768.66
2023-01-13T03:18:32.135Z,97776.09
2023-01-13T03:21:26.756Z,97772.69
2023-01-13T03:24:27.430Z,97770.75
2023-01-13T03:27:04.084Z,97770.44
2023-01-13T03:29:49.305Z,97753.94
2023-01-13T03:32:35.120Z,97751.28
2023-01-13T03:35:17.695Z,97757.41
2023-01-13T03:37:51.940Z,97753.69
2023-01-13T03:40:28.032Z,97743.94
2023-01-13T03:43:19.558Z,97756.63
2023-01-13T03:45:55.211Z,97746.41
2023-01-13T03:48:26.368Z,97758.53
2023-01-13T03:50:58.216Z,97755.09
2023-01-13T03:53:31.412Z,97744.28
2023-01-13T03:56:09.142Z,97755.59
2023-01-13T03:58:41.875Z,97744.44
2023-01-13T04:01:21.204Z,97748.03
2023-01-13T04:04:03.774Z,97746.91
2023-01-13T04:06:53.304Z,97738.63
2023-01-13T04:09:49.563Z,97736.69
2023-01-13T04:12:23.785Z,97743.69
2023-01-13T04:14:52.371Z,97745.69
2023-01-13T04:17:20.647Z,97740.16
2023-01-13T04:19:47.647Z,97732.09
2023-01-13T04:22:14.613Z,97732.25
2023-01-13T04:24:41.554Z,97731.34
2023-01-13T04:27:08.544Z,97723.44
2023-01-13T04:29:35.547Z,97730.59
2023-01-13T04:32:02.563Z,97735.81
2023-01-13T04:34:29.953Z,97731.91
2023-01-13T04:36:57.547Z,97727.38
2023-01-13T04:39:24.494Z,97736.94
2023-01-13T04:41:57.725Z,97738.44
2023-01-13T04:44:25.062Z,97732.00
2023-01-13T04:46:52.195Z,97726.63
2023-01-13T04:49:19.155Z,97730.50
2023-01-13T04:51:46.559Z,97725.47
2023-01-13T04:54:13.600Z,97728.38
2023-01-13T04:56:40.568Z,97723.25
2023-01-13T04:59:08.807Z,97719.84
2023-01-13T05:01:35.776Z,97718.94
2023-01-13T05:04:03.325Z,97715.50
2023-01-13T05:06:30.428Z,97723.66
2023-01-13T05:08:57.457Z,97724.84
2023-01-13T05:11:42.841Z,97718.94
2023-01-13T05:14:28.956Z,97721.94
2023-01-13T05:17:03.591Z,97719.44
2023-01-13T05:19:40.798Z,97729.34
2023-01-13T05:22:26.171Z,97726.44
2023-01-13T05:25:12.043Z,97727.16
2023-01-13T05:27:39.003Z,97722.03
2023-01-13T05:30:07.780Z,97727.63
2023-01-13T05:32:34.756Z,97741.38
2023-01-13T05:35:01.695Z,97728.41
2023-01-13T05:37:28.724Z,97736.66
2023-01-13T05:40:14.723Z,97734.84
2023-01-13T05:43:00.479Z,97729.19
2023-01-13T05:45:27.603Z,97726.69
2023-01-13T05:47:54.836Z,97742.41
2023-01-13T05:50:21.823Z,97723.41
2023-01-13T05:52:49.126Z,97721.06
2023-01-13T05:55:16.209Z,97716.06
2023-01-13T05:57:43.191Z,97716.69
2023-01-13T06:00:10.890Z,97720.88
2023-01-13T06:02:40.775Z,97736.09
2023-01-13T06:05:08.599Z,97723.47
2023-01-13T06:07:35.607Z,97722.44
2023-01-13T06:10:02.549Z,97722.66
2023-01-13T06:12:29.509Z,97709.31
2023-01-13T06:14:56.471Z,97721.94
2023-01-13T06:17:23.441Z,97727.84
2023-01-13T06:19:51.100Z,97718.00
2023-01-13T06:22:24.533Z,97722.91
2023-01-13T06:24:53.763Z,97723.63
2023-01-13T06:27:22.367Z,97722.16
2023-01-13T06:29:49.725Z,97719.16
2023-01-13T06:32:20.955Z,97715.91
2023-01-13T06:34:57.837Z,97716.38
2023-01-13T06:37:26.211Z,97710.19
2023-01-13T06:39:58.462Z,97725.91
2023-01-13T06:42:46.777Z,97737.81
2023-01-13T06:45:14.227Z,97721.81
2023-01-13T06:47:41.511Z,97727.09
2023-01-13T06:50:09.649Z,97732.78
2023-01-13T06:52:36.658Z,97718.03
2023-01-13T06:55:04.304Z,97725.38
2023-01-13T06:57:31.258Z,97717.53
2023-01-13T06:59:58.216Z,97727.81
2023-01-13T07:02:25.933Z,97721.09
2023-01-13T07:04:52.976Z,97713.28
2023-01-13T07:07:19.943Z,97713.66
2023-01-13T07:09:46.917Z,97719.59
2023-01-13T07:12:17.019Z,97728.88
2023-01-13T07:15:02.439Z,97712.50
2023-01-13T07:17:29.369Z,97708.47
2023-01-13T07:19:57.999Z,97709.03
2023-01-13T07:22:25.128Z,97708.91
2023-01-13T07:24:52.116Z,97718.75
2023-01-13T07:27:19.473Z,97715.16
2023-01-13T07:29:46.431Z,97717.28
2023-01-13T07:32:13.364Z,97718.38
2023-01-13T07:34:40.315Z,97719.53
2023-01-13T07:37:07.306Z,97718.91
2023-01-13T07:39:34.263Z,97731.13
2023-01-13T07:42:20.104Z,97723.22
2023-01-13T07:44:47.194Z,97728.19
2023-01-13T07:47:14.599Z,97728.34
2023-01-13T07:49:41.544Z,97726.09
2023-01-13T07:52:08.935Z,97725.91
2023-01-13T07:54:40.993Z,97722.13
2023-01-13T07:57:08.554Z,97724.56
2023-01-13T07:59:35.478Z,97723.47
2023-01-13T08:02:03.114Z,97725.34
2023-01-13T08:04:30.216Z,97727.69
2023-01-13T08:06:57.580Z,97721.03
2023-01-13T08:09:24.623Z,97716.91
2023-01-13T08:12:13.068Z,97731.13
2023-01-13T08:14:40.271Z,97732.91
2023-01-13T08:17:10.483Z,97745.41
2023-01-13T08:19:38.015Z,97730.63
2023-01-13T08:22:05.048Z,97768.13
2023-01-13T08:24:32.014Z,97777.63
2023-01-13T08:26:59.387Z,97813.25
2023-01-13T08:29:26.336Z,97765.97
2023-01-13T08:31:53.309Z,97744.81
2023-01-13T08:34:20.732Z,97766.97
2023-01-13T08:36:50.532Z,97789.13
2023-01-13T08:39:18.631Z,97830.84
2023-01-13T08:41:58.469Z,97813.00
2023-01-13T08:44:31.670Z,97830.56
2023-01-13T08:46:59.500Z,97837.00
2023-01-13T08:49:26.907Z,97848.13
2023-01-13T08:51:54.372Z,97847.56
2023-01-13T08:54:21.410Z,97876.97
2023-01-13T08:56:48.820Z,97866.91
2023-01-13T08:59:19.215Z,97854.13
2023-01-13T09:01:46.731Z,97856.66
2023-01-13T09:04:20.883Z,97861.94
2023-01-13T09:06:48.622Z,97869.75
2023-01-13T09:09:15.687Z,97891.69
2023-01-13T09:12:04.698Z,97918.75
2023-01-13T09:14:35.014Z,97956.34
2023-01-13T09:17:02.511Z,97960.28
2023-01-13T09:19:30.324Z,97965.03
2023-01-13T09:21:57.796Z,97995.09
2023-01-13T09:24:25.524Z,97944.78
2023-01-13T09:26:53.212Z,97888.00
2023-01-13T09:29:20.607Z,97896.91
2023-01-13T09:31:48.068Z,97895.16
2023-01-13T09:34:37.254Z,97929.69
2023-01-13T09:37:06.728Z,97952.72
2023-01-13T09:39:35.440Z,97976.56
2023-01-13T09:43:00.727Z,97992.47
2023-01-13T09:45:58.063Z,98000.81
2023-01-13T09:48:51.812Z,97990.91
2023-01-13T09:51:35.679Z,98002.81
2023-01-13T09:54:32.415Z,98010.75
2023-01-13T09:56:59.856Z,98011.69
2023-01-13T09:59:36.448Z,98004.44
2023-01-13T10:02:37.923Z,97988.91
2023-01-13T10:05:20.074Z,97989.38
2023-01-13T10:07:57.372Z,97979.38
2023-01-13T10:10:47.154Z,97966.34
2023-01-13T10:13:31.734Z,97977.59
2023-01-13T10:16:10.684Z,97964.34
2023-01-13T10:19:05.422Z,97970.63
2023-01-13T10:22:15.683Z,97976.69
2023-01-13T10:25:20.622Z,97987.28
2023-01-13T10:27:55.961Z,97990.38
2023-01-13T10:30:34.615Z,97980.81
2023-01-13T10:33:21.462Z,97977.13
2023-01-13T10:36:02.750Z,98213.19
2023-01-13T10:38:38.688Z,98108.59
2023-01-13T10:41:14.663Z,98036.94
2023-01-13T10:44:16.517Z,98000.97
2023-01-13T10:46:58.746Z,97991.88
2023-01-13T10:49:38.633Z,97994.63
2023-01-13T10:52:27.278Z,97985.19
2023-01-13T10:54:55.512Z,97994.97
2023-01-13T10:57:28.155Z,97999.56
2023-01-13T10:59:56.294Z,97998.22
2023-01-13T11:02:29.426Z,98003.28
2023-01-13T11:04:58.051Z,98002.88
2023-01-13T11:07:40.663Z,97997.22
2023-01-13T11:10:21.274Z,97995.63
2023-01-13T11:13:36.338Z,98006.94
2023-01-13T11:16:16.707Z,98008.44
2023-01-13T11:19:14.168Z,97998.88
2023-01-13T11:22:01.043Z,98007.31
2023-01-13T11:24:52.759Z,98018.94
2023-01-13T11:27:55.582Z,98017.41
2023-01-13T11:30:41.234Z,98015.78
2023-01-13T11:33:41.777Z,98018.09
2023-01-13T11:36:23.685Z,98014.88
2023-01-13T11:38:59.003Z,98000.75
2023-01-13T11:41:39.893Z,98013.03
2023-01-13T11:44:24.579Z,98026.00
2023-01-13T11:46:53.674Z,98018.22
2023-01-13T11:49:29.528Z,98017.31
2023-01-13T11:52:21.785Z,98020.25
2023-01-13T11:55:24.077Z,98020.94
2023-01-13T11:58:33.708Z,98012.56
2023-01-13T12:01:27.808Z,98023.31
2023-01-13T12:04:22.886Z,98007.91
2023-01-13T12:07:41.316Z,98005.03
2023-01-13T12:10:30.033Z,98016.22
2023-01-13T12:13:25.636Z,98002.72
2023-01-13T12:16:14.669Z,97993.94
2023-01-13T12:19:25.016Z,97979.38
2023-01-13T12:22:16.450Z,97995.00
2023-01-13T12:24:58.334Z,97984.25
2023-01-13T12:27:53.757Z,97973.22
2023-01-13T12:30:52.313Z,97979.50
2023-01-13T12:33:52.017Z,97979.44
2023-01-13T12:36:32.301Z,97985.19
2023-01-13T12:39:13.487Z,97998.13
2023-01-13T12:42:23.501Z,97998.06
2023-01-13T12:45:12.421Z,97999.66
2023-01-13T12:47:44.676Z,98011.59
2023-01-13T12:50:23.880Z,98022.50
2023-01-13T12:53:00.286Z,98024.22
2023-01-13T12:55:27.607Z,98032.84
2023-01-13T12:58:06.586Z,98019.59
2023-01-13T13:00:39.809Z,98042.97
2023-01-13T13:03:33.345Z,98034.25
2023-01-13T13:06:21.940Z,98041.09
2023-01-13T13:09:14.210Z,98052.78
2023-01-13T13:11:59.611Z,98034.19
2023-01-13T13:14:41.833Z,98019.81
2023-01-13T13:17:31.641Z,98026.16
2023-01-13T13:20:00.448Z,98041.69
2023-01-13T13:22:27.735Z,98034.19
2023-01-13T13:24:55.018Z,98032.41
2023-01-13T13:27:47.838Z,98021.75
2023-01-13T13:30:29.862Z,98017.56
2023-01-13T13:33:20.895Z,98004.91
2023-01-13T13:36:06.618Z,98026.19
2023-01-13T13:39:26.323Z,98032.16
2023-01-13T13:42:27.440Z,98067.56
2023-01-13T13:45:13.917Z,98038.72
2023-01-13T13:47:41.466Z,98046.06
2023-01-13T13:50:21.725Z,98035.91
2023-01-13T13:53:05.356Z,98028.13
2023-01-13T13:55:32.876Z,98036.03
2023-01-13T13:58:01.662Z,98046.25
2023-01-13T14:00:35.952Z,98050.13
2023-01-13T14:03:04.359Z,98049.44
2023-01-13T14:05:36.133Z,98060.94
2023-01-13T14:08:18.088Z,98071.44
2023-01-13T14:10:46.761Z,98071.56
2023-01-13T14:13:26.168Z,98077.88
2023-01-13T14:16:11.004Z,98084.91
2023-01-13T14:18:48.455Z,98097.88
2023-01-13T14:21:19.228Z,98094.06
2023-01-13T14:23:56.768Z,98115.00
2023-01-13T14:26:31.033Z,98113.81
2023-01-13T14:29:01.136Z,98124.66
2023-01-13T14:31:29.121Z,98138.38
2023-01-13T14:33:59.704Z,98131.88
2023-01-13T14:36:37.949Z,98151.19
2023-01-13T14:39:05.371Z,98151.91
2023-01-13T14:41:47.062Z,98145.31
2023-01-13T14:44:20.993Z,98147.53
2023-01-13T14:46:48.515Z,98139.03
2023-01-13T14:49:52.397Z,98137.94
2023-01-13T14:52:23.379Z,98146.13
2023-01-13T14:55:08.507Z,98146.47
2023-01-13T14:57:39.466Z,98134.88
2023-01-13T15:00:23.601Z,98126.75
2023-01-13T15:02:53.716Z,98130.84
2023-01-13T15:05:23.855Z,98140.75
2023-01-13T15:08:14.080Z,98148.56
2023-01-13T15:11:00.154Z,98168.41
2023-01-13T15:13:42.663Z,98173.97
2023-01-13T15:16:24.835Z,98175.28
2023-01-13T15:18:52.999Z,98176.09
2023-01-13T15:21:20.372Z,98192.53
2023-01-13T15:23:47.831Z,98203.25
2023-01-13T15:26:28.817Z,98202.88
2023-01-13T15:28:58.332Z,98199.75
2023-01-13T15:31:27.515Z,98212.13
2023-01-13T15:33:55.410Z,98215.22
2023-01-13T15:36:27.687Z,98205.97
2023-01-13T15:38:54.942Z,98212.28
2023-01-13T15:41:42.386Z,98224.63
2023-01-13T15:44:33.741Z,98220.06
2023-01-13T15:47:06.292Z,98219.84
2023-01-13T15:49:46.334Z,98220.56
2023-01-13T15:52:23.346Z,98226.06
2023-01-13T15:54:51.689Z,98225.75
2023-01-13T15:57:31.038Z,98220.97
2023-01-13T16:00:01.838Z,98231.38
2023-01-13T16:02:34.410Z,98232.34
2023-01-13T16:05:01.832Z,98238.63
2023-01-13T16:07:29.433Z,98240.84
2023-01-13T16:09:56.904Z,98239.28
2023-01-13T16:12:24.465Z,98249.50
2023-01-13T16:14:51.467Z,98257.94
2023-01-13T16:17:24.191Z,98253.91
2023-01-13T16:19:52.195Z,98254.72
2023-01-13T16:22:19.287Z,98272.84
2023-01-13T16:24:46.763Z,98271.16
2023-01-13T16:27:23.180Z,98286.25
2023-01-13T16:29:52.017Z,98271.84
2023-01-13T16:32:22.108Z,98268.25
2023-01-13T16:34:51.779Z,98280.16
2023-01-13T16:37:25.684Z,98284.81
2023-01-13T16:39:54.244Z,98288.00
2023-01-13T16:42:21.938Z,98299.56
2023-01-13T16:44:50.768Z,98299.88
2023-01-13T16:47:18.779Z,98305.31
2023-01-13T16:49:46.272Z,98295.22
2023-01-13T16:52:13.943Z,98308.50
2023-01-13T16:54:43.538Z,98311.44
2023-01-13T16:57:14.340Z,98317.63
2023-01-13T16:59:41.328Z,98319.94
2023-01-13T17:02:14.720Z,98327.28
2023-01-13T17:04:41.754Z,98315.91
2023-01-13T17:07:10.567Z,98329.84
2023-01-13T17:09:37.953Z,98333.19
2023-01-13T17:12:05.437Z,98343.19
2023-01-13T17:14:32.427Z,98334.09
2023-01-13T17:16:59.373Z,98341.22
2023-01-13T17:19:26.538Z,98339.53
2023-01-13T17:21:53.880Z,98334.63
2023-01-13T17:24:21.704Z,98352.72
2023-01-13T17:26:50.923Z,98346.63
2023-01-13T17:29:25.142Z,98344.34
2023-01-13T17:31:53.222Z,98344.88
2023-01-13T17:34:21.243Z,98353.56
2023-01-13T17:36:48.896Z,98355.81
2023-01-13T17:39:22.239Z,98356.16
2023-01-13T17:41:50.473Z,98372.81
2023-01-13T17:44:20.359Z,98375.63
2023-01-13T17:46:48.894Z,98374.78
2023-01-13T17:49:18.700Z,98362.09
2023-01-13T17:51:48.213Z,98354.88
2023-01-13T17:54:15.722Z,98358.50
2023-01-13T17:56:43.771Z,98359.81
2023-01-13T17:59:15.909Z,98363.34
2023-01-13T18:01:43.406Z,98370.69
2023-01-13T18:04:24.036Z,98373.22
2023-01-13T18:06:51.576Z,98366.75
2023-01-13T18:09:18.551Z,98378.66
2023-01-13T18:11:47.219Z,98383.63
2023-01-13T18:14:15.337Z,98383.63
2023-01-13T18:16:43.347Z,98396.03
2023-01-13T18:19:29.619Z,98407.09
2023-01-13T18:22:14.922Z,98404.03
2023-01-13T18:25:00.766Z,98398.63
2023-01-13T18:27:33.503Z,98404.28
2023-01-13T18:30:03.460Z,98418.44
2023-01-13T18:32:33.392Z,98417.53
2023-01-13T18:35:06.374Z,98417.63
2023-01-13T18:37:38.746Z,98420.94
2023-01-13T18:40:09.368Z,98430.31
2023-01-13T18:42:54.106Z,98437.53
2023-01-13T18:45:30.422Z,98432.81
2023-01-13T18:48:01.596Z,98442.66
2023-01-13T18:50:29.331Z,98450.44
2023-01-13T18:52:57.308Z,98445.25
2023-01-13T18:55:24.384Z,98457.25
2023-01-13T18:57:51.866Z,98462.16
2023-01-13T19:00:21.107Z,98468.81
2023-01-13T19:02:50.654Z,98467.41
2023-01-13T19:05:18.159Z,98462.47
2023-01-13T19:07:50.574Z,98467.63
2023-01-13T19:10:18.509Z,98465.78
2023-01-13T19:12:45.978Z,98463.41
2023-01-13T19:15:12.992Z,98466.47
2023-01-13T19:17:40.093Z,98468.69
2023-01-13T19:20:08.073Z,98473.00
2023-01-13T19:22:35.353Z,98480.53
2023-01-13T19:25:04.525Z,98481.59
2023-01-13T19:27:32.029Z,98492.50
2023-01-13T19:30:00.637Z,98496.91
2023-01-13T19:32:30.603Z,98502.81
2023-01-13T19:34:59.558Z,98515.38
2023-01-13T19:37:30.192Z,98507.59
2023-01-13T19:40:00.459Z,98502.00
2023-01-13T19:42:46.503Z,98508.69
2023-01-13T19:45:27.335Z,98521.34
2023-01-13T19:47:56.044Z,98533.84
2023-01-13T19:50:23.415Z,98522.19
2023-01-13T19:52:50.830Z,98539.59
2023-01-13T19:55:19.678Z,98542.84
2023-01-13T19:57:46.846Z,98553.56
2023-01-13T20:00:18.300Z,98551.41
2023-01-13T20:02:49.098Z,98561.16
2023-01-13T20:05:22.592Z,98564.63
2023-01-13T20:07:51.145Z,98567.38
2023-01-13T20:10:20.927Z,98574.16
2023-01-13T20:12:48.380Z,98568.47
2023-01-13T20:15:15.635Z,98575.44
2023-01-13T20:17:42.646Z,98573.22
2023-01-13T20:20:11.871Z,98572.31
2023-01-13T20:22:39.763Z,98579.66
2023-01-13T20:25:08.428Z,98582.31
2023-01-13T20:27:37.241Z,98577.53
2023-01-13T20:30:06.101Z,98584.94
2023-01-13T20:32:33.062Z,98588.22
2023-01-13T20:35:00.045Z,98582.38
2023-01-13T20:37:27.372Z,98585.31
2023-01-13T20:39:55.257Z,98584.88
2023-01-13T20:42:31.909Z,98580.75
2023-01-13T20:45:01.062Z,98582.06
2023-01-13T20:47:29.486Z,98583.28
2023-01-13T20:49:56.605Z,98601.88
2023-01-13T20:52:24.671Z,98593.78
2023-01-13T20:54:52.107Z,98591.13
2023-01-13T20:57:19.519Z,98599.06
2023-01-13T20:59:46.952Z,98606.56
2023-01-13T21:02:16.511Z,98611.25
2023-01-13T21:04:44.033Z,98604.78
2023-01-13T21:07:11.249Z,98608.91
2023-01-13T21:09:38.650Z,98614.91
2023-01-13T21:12:25.316Z,98615.53
2023-01-13T21:15:11.118Z,98610.63
2023-01-13T21:17:56.912Z,98612.97
2023-01-13T21:20:23.864Z,98603.44
2023-01-13T21:22:50.892Z,98613.97
2023-01-13T21:25:19.349Z,98600.31
2023-01-13T21:27:46.739Z,98604.94
2023-01-13T21:30:15.523Z,98598.28
2023-01-13T21:32:44.385Z,98597.75
2023-01-13T21:35:12.562Z,98605.66
2023-01-13T21:37:42.604Z,98618.69
2023-01-13T21:40:13.064Z,98609.22
2023-01-13T21:42:58.574Z,98617.75
2023-01-13T21:45:44.486Z,98630.41
2023-01-13T21:48:11.498Z,98624.41
2023-01-13T21:50:38.678Z,98622.38
2023-01-13T21:53:07.879Z,98626.41
2023-01-13T21:55:36.765Z,98631.38
2023-01-13T21:58:11.904Z,98637.31
2023-01-13T22:00:41.353Z,98655.19
2023-01-13T22:03:11.262Z,98655.50
2023-01-13T22:05:38.747Z,98647.38
2023-01-13T22:08:06.407Z,98651.41
2023-01-13T22:10:34.298Z,98654.44
2023-01-13T22:13:22.918Z,98659.53
2023-01-13T22:15:50.310Z,98664.88
2023-01-13T22:18:18.267Z,98656.25
2023-01-13T22:20:45.763Z,98662.47
2023-01-13T22:23:13.486Z,98671.44
2023-01-13T22:25:40.439Z,98662.94
2023-01-13T22:28:09.127Z,98676.84
2023-01-13T22:30:36.394Z,98684.41
2023-01-13T22:33:03.547Z,98685.19
2023-01-13T22:35:30.546Z,98683.34
2023-01-13T22:37:58.327Z,98678.53
2023-01-13T22:40:25.257Z,98683.84
2023-01-13T22:42:52.646Z,98686.06
2023-01-13T22:45:20.004Z,98678.28
2023-01-13T22:47:47.643Z,98673.56
2023-01-13T22:50:18.293Z,98680.09
2023-01-13T22:52:45.697Z,98662.59
2023-01-13T22:55:13.069Z,98663.00
2023-01-13T22:57:47.704Z,98684.63
2023-01-13T23:00:18.924Z,98678.88
2023-01-13T23:02:46.641Z,98674.94
2023-01-13T23:05:13.944Z,98671.13
2023-01-13T23:07:41.442Z,98664.03
2023-01-13T23:10:09.270Z,98673.03
2023-01-13T23:12:36.235Z,98669.34
2023-01-13T23:15:04.337Z,98668.63
2023-01-13T23:17:31.783Z,98673.38
2023-01-13T23:19:58.745Z,98687.19
2023-01-13T23:22:25.780Z,98693.72
2023-01-13T23:24:53.165Z,98689.81
2023-01-13T23:27:20.531Z,98694.28
2023-01-13T23:29:49.002Z,98698.28
2023-01-13T23:32:16.112Z,98698.75
2023-01-13T23:34:43.050Z,98702.28
2023-01-13T23:37:09.977Z,98690.06
2023-01-13T23:39:36.974Z,98693.41
2023-01-13T23:42:04.353Z,98697.25
2023-01-13T23:44:31.307Z,98700.91
2023-01-13T23:46:58.590Z,98703.16
2023-01-13T23:49:25.937Z,98701.47
2023-01-13T23:51:53.136Z,98702.72
2023-01-13T23:54:20.086Z,98697.91
2023-01-13T23:56:50.418Z,98700.69
2023-01-13T23:59:17.385Z,98694.31
